sensor_id;sensor_type;location;lat;lon;timestamp;temperature;humidity
20839;DHT22;10580;51.092;6.828;2023-08-01T00:01:03;17.10;99.90
20839;DHT22;10580;51.092;6.828;2023-08-01T00:03:28;17.10;99.90
20839;DHT22;10580;51.092;6.828;2023-08-01T00:05:54;17.10;99.90
20839;DHT22;10580;51.092;6.828;2023-08-01T00:08:20;17.10;99.90
20839;DHT22;10580;51.092;6.828;2023-08-01T00:10:46;17.10;99.90
20839;DHT22;10580;51.092;6.828;2023-08-01T00:13:12;17.10;99.90
20839;DHT22;10580;51.092;6.828;2023-08-01T00:15:37;17.10;99.90
20839;DHT22;10580;51.092;6.828;2023-08-01T00:18:03;17.10;99.90
20839;DHT22;10580;51.092;6.828;2023-08-01T00:20:29;17.10;99.90
20839;DHT22;10580;51.092;6.828;2023-08-01T00:22:54;17.10;99.90
20839;DHT22;10580;51.092;6.828;2023-08-01T00:25:20;17.10;99.90
20839;DHT22;10580;51.092;6.828;2023-08-01T00:27:45;17.10;99.90
20839;DHT22;10580;51.092;6.828;2023-08-01T00:30:11;17.10;99.90
20839;DHT22;10580;51.092;6.828;2023-08-01T00:32:37;17.10;99.90
20839;DHT22;10580;51.092;6.828;2023-08-01T00:35:03;17.10;99.90
20839;DHT22;10580;51.092;6.828;2023-08-01T00:37:29;17.10;99.90
20839;DHT22;10580;51.092;6.828;2023-08-01T00:39:55;17.10;99.90
20839;DHT22;10580;51.092;6.828;2023-08-01T00:42:20;17.10;99.90
20839;DHT22;10580;51.092;6.828;2023-08-01T00:44:46;17.10;99.90
20839;DHT22;10580;51.092;6.828;2023-08-01T00:47:14;17.00;99.90
20839;DHT22;10580;51.092;6.828;2023-08-01T00:49:40;17.10;99.90
20839;DHT22;10580;51.092;6.828;2023-08-01T00:52:06;17.10;99.90
20839;DHT22;10580;51.092;6.828;2023-08-01T00:54:32;17.10;99.90
20839;DHT22;10580;51.092;6.828;2023-08-01T00:57:02;17.10;99.90
20839;DHT22;10580;51.092;6.828;2023-08-01T00:59:29;17.10;99.90
20839;DHT22;10580;51.092;6.828;2023-08-01T01:01:54;17.10;99.90
20839;DHT22;10580;51.092;6.828;2023-08-01T01:04:20;17.10;99.90
20839;DHT22;10580;51.092;6.828;2023-08-01T01:06:52;17.00;99.90
20839;DHT22;10580;51.092;6.828;2023-08-01T01:09:21;17.00;99.90
20839;DHT22;10580;51.092;6.828;2023-08-01T01:11:47;17.00;99.90
20839;DHT22;10580;51.092;6.828;2023-08-01T01:14:12;17.00;99.90
20839;DHT22;10580;51.092;6.828;2023-08-01T01:16:38;17.00;99.90
20839;DHT22;10580;51.092;6.828;2023-08-01T01:19:07;17.00;99.90
20839;DHT22;10580;51.092;6.828;2023-08-01T01:21:35;17.00;99.90
20839;DHT22;10580;51.092;6.828;2023-08-01T01:24:03;17.00;99.90
20839;DHT22;10580;51.092;6.828;2023-08-01T01:26:31;17.00;99.90
20839;DHT22;10580;51.092;6.828;2023-08-01T01:28:57;17.10;99.90
20839;DHT22;10580;51.092;6.828;2023-08-01T01:31:23;17.10;99.90
20839;DHT22;10580;51.092;6.828;2023-08-01T01:33:49;17.10;99.90
20839;DHT22;10580;51.092;6.828;2023-08-01T01:36:15;17.10;99.90
20839;DHT22;10580;51.092;6.828;2023-08-01T01:38:40;17.10;99.90
20839;DHT22;10580;51.092;6.828;2023-08-01T01:41:06;17.10;99.90
20839;DHT22;10580;51.092;6.828;2023-08-01T01:43:31;17.00;99.90
20839;DHT22;10580;51.092;6.828;2023-08-01T01:45:57;17.00;99.90
20839;DHT22;10580;51.092;6.828;2023-08-01T01:48:22;17.00;99.90
20839;DHT22;10580;51.092;6.828;2023-08-01T01:50:48;16.90;99.90
20839;DHT22;10580;51.092;6.828;2023-08-01T01:53:13;17.00;99.90
20839;DHT22;10580;51.092;6.828;2023-08-01T01:55:39;16.90;99.90
20839;DHT22;10580;51.092;6.828;2023-08-01T01:58:05;16.90;99.90
20839;DHT22;10580;51.092;6.828;2023-08-01T02:00:31;16.90;99.90
20839;DHT22;10580;51.092;6.828;2023-08-01T02:02:57;16.90;99.90
20839;DHT22;10580;51.092;6.828;2023-08-01T02:05:22;16.90;99.90
20839;DHT22;10580;51.092;6.828;2023-08-01T02:07:48;16.90;99.90
20839;DHT22;10580;51.092;6.828;2023-08-01T02:10:13;16.90;99.90
20839;DHT22;10580;51.092;6.828;2023-08-01T02:12:39;16.90;99.90
20839;DHT22;10580;51.092;6.828;2023-08-01T02:15:05;16.90;99.90
20839;DHT22;10580;51.092;6.828;2023-08-01T02:17:31;16.80;99.90
20839;DHT22;10580;51.092;6.828;2023-08-01T02:19:56;16.80;99.90
20839;DHT22;10580;51.092;6.828;2023-08-01T02:22:24;16.70;99.90
20839;DHT22;10580;51.092;6.828;2023-08-01T02:24:49;16.70;99.90
20839;DHT22;10580;51.092;6.828;2023-08-01T02:27:15;16.70;99.90
20839;DHT22;10580;51.092;6.828;2023-08-01T02:29:41;16.70;99.90
20839;DHT22;10580;51.092;6.828;2023-08-01T02:32:07;16.70;99.90
20839;DHT22;10580;51.092;6.828;2023-08-01T02:34:32;16.70;99.90
20839;DHT22;10580;51.092;6.828;2023-08-01T02:36:58;16.70;99.90
20839;DHT22;10580;51.092;6.828;2023-08-01T02:39:23;16.60;99.90
20839;DHT22;10580;51.092;6.828;2023-08-01T02:41:49;16.60;99.90
20839;DHT22;10580;51.092;6.828;2023-08-01T02:44:14;16.60;99.90
20839;DHT22;10580;51.092;6.828;2023-08-01T02:46:40;16.60;99.90
20839;DHT22;10580;51.092;6.828;2023-08-01T02:49:06;16.60;99.90
20839;DHT22;10580;51.092;6.828;2023-08-01T02:51:31;16.60;99.90
20839;DHT22;10580;51.092;6.828;2023-08-01T02:53:57;16.60;99.90
20839;DHT22;10580;51.092;6.828;2023-08-01T02:56:22;16.60;99.90
20839;DHT22;10580;51.092;6.828;2023-08-01T02:58:48;16.60;99.90
20839;DHT22;10580;51.092;6.828;2023-08-01T03:01:13;16.60;99.90
20839;DHT22;10580;51.092;6.828;2023-08-01T03:03:39;16.60;99.90
20839;DHT22;10580;51.092;6.828;2023-08-01T03:06:05;16.50;99.90
20839;DHT22;10580;51.092;6.828;2023-08-01T03:08:31;16.50;99.90
20839;DHT22;10580;51.092;6.828;2023-08-01T03:10:57;16.50;99.90
20839;DHT22;10580;51.092;6.828;2023-08-01T03:13:22;16.50;99.90
20839;DHT22;10580;51.092;6.828;2023-08-01T03:15:48;16.50;99.90
20839;DHT22;10580;51.092;6.828;2023-08-01T03:18:14;16.40;99.90
20839;DHT22;10580;51.092;6.828;2023-08-01T03:20:39;16.50;99.90
20839;DHT22;10580;51.092;6.828;2023-08-01T03:23:05;16.40;99.90
20839;DHT22;10580;51.092;6.828;2023-08-01T03:25:32;16.40;99.90
20839;DHT22;10580;51.092;6.828;2023-08-01T03:27:57;16.30;99.90
20839;DHT22;10580;51.092;6.828;2023-08-01T03:30:23;16.30;99.90
20839;DHT22;10580;51.092;6.828;2023-08-01T03:32:48;16.30;99.90
20839;DHT22;10580;51.092;6.828;2023-08-01T03:35:14;16.30;99.90
20839;DHT22;10580;51.092;6.828;2023-08-01T03:37:40;16.30;99.90
20839;DHT22;10580;51.092;6.828;2023-08-01T03:40:06;16.30;99.90
20839;DHT22;10580;51.092;6.828;2023-08-01T03:42:36;16.20;99.90
20839;DHT22;10580;51.092;6.828;2023-08-01T03:45:01;16.20;99.90
20839;DHT22;10580;51.092;6.828;2023-08-01T03:47:27;16.10;99.90
20839;DHT22;10580;51.092;6.828;2023-08-01T03:49:53;16.10;99.90
20839;DHT22;10580;51.092;6.828;2023-08-01T03:52:18;16.00;99.90
20839;DHT22;10580;51.092;6.828;2023-08-01T03:54:44;15.90;99.90
20839;DHT22;10580;51.092;6.828;2023-08-01T03:57:10;15.90;99.90
20839;DHT22;10580;51.092;6.828;2023-08-01T03:59:36;15.80;99.90
20839;DHT22;10580;51.092;6.828;2023-08-01T04:02:01;15.80;99.90
20839;DHT22;10580;51.092;6.828;2023-08-01T04:04:27;15.80;99.90
20839;DHT22;10580;51.092;6.828;2023-08-01T04:06:52;15.70;99.90
20839;DHT22;10580;51.092;6.828;2023-08-01T04:09:18;15.70;99.90
20839;DHT22;10580;51.092;6.828;2023-08-01T04:11:44;15.60;99.90
20839;DHT22;10580;51.092;6.828;2023-08-01T04:14:09;15.50;99.90
20839;DHT22;10580;51.092;6.828;2023-08-01T04:16:35;15.50;99.90
20839;DHT22;10580;51.092;6.828;2023-08-01T04:19:00;15.50;99.90
20839;DHT22;10580;51.092;6.828;2023-08-01T04:21:26;15.50;99.90
20839;DHT22;10580;51.092;6.828;2023-08-01T04:23:51;15.50;99.90
20839;DHT22;10580;51.092;6.828;2023-08-01T04:26:17;15.50;99.90
20839;DHT22;10580;51.092;6.828;2023-08-01T04:28:42;15.50;99.90
20839;DHT22;10580;51.092;6.828;2023-08-01T04:31:08;15.40;99.90
20839;DHT22;10580;51.092;6.828;2023-08-01T04:33:34;15.40;99.90
20839;DHT22;10580;51.092;6.828;2023-08-01T04:35:59;15.40;99.90
20839;DHT22;10580;51.092;6.828;2023-08-01T04:38:25;15.40;99.90
20839;DHT22;10580;51.092;6.828;2023-08-01T04:40:50;15.40;99.90
20839;DHT22;10580;51.092;6.828;2023-08-01T04:43:16;15.40;99.90
20839;DHT22;10580;51.092;6.828;2023-08-01T04:45:41;15.40;99.90
20839;DHT22;10580;51.092;6.828;2023-08-01T04:48:07;15.40;99.90
20839;DHT22;10580;51.092;6.828;2023-08-01T04:50:32;15.40;99.90
20839;DHT22;10580;51.092;6.828;2023-08-01T04:52:58;15.40;99.90
20839;DHT22;10580;51.092;6.828;2023-08-01T04:55:23;15.40;99.90
20839;DHT22;10580;51.092;6.828;2023-08-01T04:57:49;15.40;99.90
20839;DHT22;10580;51.092;6.828;2023-08-01T05:00:14;15.40;99.90
20839;DHT22;10580;51.092;6.828;2023-08-01T05:02:40;15.50;99.90
20839;DHT22;10580;51.092;6.828;2023-08-01T05:05:06;15.40;99.90
20839;DHT22;10580;51.092;6.828;2023-08-01T05:07:32;15.50;99.90
20839;DHT22;10580;51.092;6.828;2023-08-01T05:09:57;15.50;99.90
20839;DHT22;10580;51.092;6.828;2023-08-01T05:12:23;15.50;99.90
20839;DHT22;10580;51.092;6.828;2023-08-01T05:14:48;15.40;99.90
20839;DHT22;10580;51.092;6.828;2023-08-01T05:17:14;15.50;99.90
20839;DHT22;10580;51.092;6.828;2023-08-01T05:19:39;15.50;99.90
20839;DHT22;10580;51.092;6.828;2023-08-01T05:22:05;15.50;99.90
20839;DHT22;10580;51.092;6.828;2023-08-01T05:24:30;15.50;99.90
20839;DHT22;10580;51.092;6.828;2023-08-01T05:26:56;15.50;99.90
20839;DHT22;10580;51.092;6.828;2023-08-01T05:29:22;15.60;99.90
20839;DHT22;10580;51.092;6.828;2023-08-01T05:31:47;15.90;99.90
20839;DHT22;10580;51.092;6.828;2023-08-01T05:34:13;16.10;99.90
20839;DHT22;10580;51.092;6.828;2023-08-01T05:36:39;16.00;99.90
20839;DHT22;10580;51.092;6.828;2023-08-01T05:39:04;16.00;99.90
20839;DHT22;10580;51.092;6.828;2023-08-01T05:41:30;15.80;99.90
20839;DHT22;10580;51.092;6.828;2023-08-01T05:43:57;15.80;99.90
20839;DHT22;10580;51.092;6.828;2023-08-01T05:46:23;15.80;99.90
20839;DHT22;10580;51.092;6.828;2023-08-01T05:48:49;15.80;99.90
20839;DHT22;10580;51.092;6.828;2023-08-01T05:51:14;15.70;99.90
20839;DHT22;10580;51.092;6.828;2023-08-01T05:53:40;15.80;99.90
20839;DHT22;10580;51.092;6.828;2023-08-01T05:56:05;15.70;95.40
20839;DHT22;10580;51.092;6.828;2023-08-01T05:58:31;15.80;90.70
20839;DHT22;10580;51.092;6.828;2023-08-01T06:00:57;15.80;95.80
20839;DHT22;10580;51.092;6.828;2023-08-01T06:03:22;15.80;99.90
20839;DHT22;10580;51.092;6.828;2023-08-01T06:05:49;15.80;75.20
20839;DHT22;10580;51.092;6.828;2023-08-01T06:08:14;15.80;77.50
20839;DHT22;10580;51.092;6.828;2023-08-01T06:10:41;15.80;65.60
20839;DHT22;10580;51.092;6.828;2023-08-01T06:13:07;15.90;82.40
20839;DHT22;10580;51.092;6.828;2023-08-01T06:15:32;15.90;46.40
20839;DHT22;10580;51.092;6.828;2023-08-01T06:17:58;16.00;75.70
20839;DHT22;10580;51.092;6.828;2023-08-01T06:20:24;16.10;58.30
20839;DHT22;10580;51.092;6.828;2023-08-01T06:22:49;16.20;80.80
20839;DHT22;10580;51.092;6.828;2023-08-01T06:25:15;16.30;24.50
20839;DHT22;10580;51.092;6.828;2023-08-01T06:27:40;16.30;39.60
20839;DHT22;10580;51.092;6.828;2023-08-01T06:30:07;16.40;39.80
20839;DHT22;10580;51.092;6.828;2023-08-01T06:32:32;16.40;1.00
20839;DHT22;10580;51.092;6.828;2023-08-01T06:34:58;16.60;23.10
20839;DHT22;10580;51.092;6.828;2023-08-01T06:37:23;16.80;20.10
20839;DHT22;10580;51.092;6.828;2023-08-01T06:39:49;16.90;1.00
20839;DHT22;10580;51.092;6.828;2023-08-01T06:42:14;16.90;1.00
20839;DHT22;10580;51.092;6.828;2023-08-01T06:44:41;17.00;1.00
20839;DHT22;10580;51.092;6.828;2023-08-01T06:47:07;17.00;1.00
20839;DHT22;10580;51.092;6.828;2023-08-01T06:49:33;16.90;1.00
20839;DHT22;10580;51.092;6.828;2023-08-01T06:51:58;16.90;1.00
20839;DHT22;10580;51.092;6.828;2023-08-01T06:54:24;16.80;1.00
20839;DHT22;10580;51.092;6.828;2023-08-01T06:56:49;16.80;1.00
20839;DHT22;10580;51.092;6.828;2023-08-01T06:59:15;16.80;1.00
20839;DHT22;10580;51.092;6.828;2023-08-01T07:01:41;17.00;1.00
20839;DHT22;10580;51.092;6.828;2023-08-01T07:04:09;17.10;1.00
20839;DHT22;10580;51.092;6.828;2023-08-01T07:06:35;17.10;1.00
20839;DHT22;10580;51.092;6.828;2023-08-01T07:09:01;17.10;1.00
20839;DHT22;10580;51.092;6.828;2023-08-01T07:11:26;17.40;1.00
20839;DHT22;10580;51.092;6.828;2023-08-01T07:13:52;17.90;99.90
20839;DHT22;10580;51.092;6.828;2023-08-01T07:16:17;18.90;99.90
20839;DHT22;10580;51.092;6.828;2023-08-01T07:18:43;19.30;1.00
20839;DHT22;10580;51.092;6.828;2023-08-01T07:21:08;18.70;1.00
20839;DHT22;10580;51.092;6.828;2023-08-01T07:23:34;18.70;1.00
20839;DHT22;10580;51.092;6.828;2023-08-01T07:26:01;18.70;99.90
20839;DHT22;10580;51.092;6.828;2023-08-01T07:28:26;18.70;99.90
20839;DHT22;10580;51.092;6.828;2023-08-01T07:31:06;18.60;1.00
20839;DHT22;10580;51.092;6.828;2023-08-01T07:33:32;18.80;92.20
20839;DHT22;10580;51.092;6.828;2023-08-01T07:35:58;18.90;1.00
20839;DHT22;10580;51.092;6.828;2023-08-01T07:38:24;18.70;99.90
20839;DHT22;10580;51.092;6.828;2023-08-01T07:40:52;18.50;99.90
20839;DHT22;10580;51.092;6.828;2023-08-01T07:43:18;17.80;99.90
20839;DHT22;10580;51.092;6.828;2023-08-01T07:45:44;17.60;1.00
20839;DHT22;10580;51.092;6.828;2023-08-01T07:48:10;17.70;1.00
20839;DHT22;10580;51.092;6.828;2023-08-01T07:50:36;17.60;1.00
20839;DHT22;10580;51.092;6.828;2023-08-01T07:53:01;17.60;99.90
20839;DHT22;10580;51.092;6.828;2023-08-01T07:55:27;17.70;1.00
20839;DHT22;10580;51.092;6.828;2023-08-01T07:57:52;17.90;99.90
20839;DHT22;10580;51.092;6.828;2023-08-01T08:00:18;18.00;99.90
20839;DHT22;10580;51.092;6.828;2023-08-01T08:02:45;18.00;1.00
20839;DHT22;10580;51.092;6.828;2023-08-01T08:05:11;17.90;99.90
20839;DHT22;10580;51.092;6.828;2023-08-01T08:07:37;18.30;1.00
20839;DHT22;10580;51.092;6.828;2023-08-01T08:10:04;18.30;1.00
20839;DHT22;10580;51.092;6.828;2023-08-01T08:12:29;18.20;28.90
20839;DHT22;10580;51.092;6.828;2023-08-01T08:14:55;18.00;1.00
20839;DHT22;10580;51.092;6.828;2023-08-01T08:17:20;17.90;1.00
20839;DHT22;10580;51.092;6.828;2023-08-01T08:19:46;17.80;1.00
20839;DHT22;10580;51.092;6.828;2023-08-01T08:22:12;17.60;1.00
20839;DHT22;10580;51.092;6.828;2023-08-01T08:24:37;17.60;1.00
20839;DHT22;10580;51.092;6.828;2023-08-01T08:27:03;17.80;99.90
20839;DHT22;10580;51.092;6.828;2023-08-01T08:29:30;17.90;1.00
20839;DHT22;10580;51.092;6.828;2023-08-01T08:31:56;18.20;99.90
20839;DHT22;10580;51.092;6.828;2023-08-01T08:34:22;18.20;1.00
20839;DHT22;10580;51.092;6.828;2023-08-01T08:36:47;18.10;1.00
20839;DHT22;10580;51.092;6.828;2023-08-01T08:39:15;17.90;99.90
20839;DHT22;10580;51.092;6.828;2023-08-01T08:41:46;17.90;99.90
20839;DHT22;10580;51.092;6.828;2023-08-01T08:44:15;18.00;26.40
20839;DHT22;10580;51.092;6.828;2023-08-01T08:46:44;18.10;1.00
20839;DHT22;10580;51.092;6.828;2023-08-01T08:49:10;18.30;1.00
20839;DHT22;10580;51.092;6.828;2023-08-01T08:51:37;18.30;1.00
20839;DHT22;10580;51.092;6.828;2023-08-01T08:54:05;18.50;99.90
20839;DHT22;10580;51.092;6.828;2023-08-01T08:56:31;18.70;1.00
20839;DHT22;10580;51.092;6.828;2023-08-01T08:58:59;18.50;1.00
20839;DHT22;10580;51.092;6.828;2023-08-01T09:01:26;18.60;99.90
20839;DHT22;10580;51.092;6.828;2023-08-01T09:03:51;18.60;99.90
20839;DHT22;10580;51.092;6.828;2023-08-01T09:06:27;18.90;1.00
20839;DHT22;10580;51.092;6.828;2023-08-01T09:09:04;19.00;1.00
20839;DHT22;10580;51.092;6.828;2023-08-01T09:11:45;19.10;99.90
20839;DHT22;10580;51.092;6.828;2023-08-01T09:14:11;19.30;99.90
20839;DHT22;10580;51.092;6.828;2023-08-01T09:16:37;19.40;1.00
20839;DHT22;10580;51.092;6.828;2023-08-01T09:19:06;19.40;99.90
20839;DHT22;10580;51.092;6.828;2023-08-01T12:16:45;21.00;1.00
20839;DHT22;10580;51.092;6.828;2023-08-01T12:37:33;19.50;99.90
20839;DHT22;10580;51.092;6.828;2023-08-01T12:43:30;19.30;99.90
20839;DHT22;10580;51.092;6.828;2023-08-01T12:45:56;19.30;1.00
20839;DHT22;10580;51.092;6.828;2023-08-01T12:48:24;19.30;1.00
20839;DHT22;10580;51.092;6.828;2023-08-01T12:50:49;19.40;76.40
20839;DHT22;10580;51.092;6.828;2023-08-01T12:53:15;19.40;1.00
20839;DHT22;10580;51.092;6.828;2023-08-01T12:55:48;19.10;99.90
20839;DHT22;10580;51.092;6.828;2023-08-01T12:58:14;18.90;99.90
20839;DHT22;10580;51.092;6.828;2023-08-01T13:00:41;18.90;1.00
20839;DHT22;10580;51.092;6.828;2023-08-01T13:03:07;18.80;1.00
20839;DHT22;10580;51.092;6.828;2023-08-01T13:05:37;18.70;99.90
20839;DHT22;10580;51.092;6.828;2023-08-01T13:08:04;18.50;1.00
20839;DHT22;10580;51.092;6.828;2023-08-01T13:10:39;18.30;1.00
20839;DHT22;10580;51.092;6.828;2023-08-01T13:13:05;18.20;1.00
20839;DHT22;10580;51.092;6.828;2023-08-01T13:15:31;18.40;99.90
20839;DHT22;10580;51.092;6.828;2023-08-01T13:17:57;18.50;99.90
20839;DHT22;10580;51.092;6.828;2023-08-01T13:20:22;18.60;99.90
20839;DHT22;10580;51.092;6.828;2023-08-01T13:22:51;18.80;99.90
20839;DHT22;10580;51.092;6.828;2023-08-01T13:25:18;18.80;99.90
20839;DHT22;10580;51.092;6.828;2023-08-01T13:27:44;18.60;1.00
20839;DHT22;10580;51.092;6.828;2023-08-01T13:30:10;18.90;57.90
20839;DHT22;10580;51.092;6.828;2023-08-01T13:32:40;19.40;1.00
20839;DHT22;10580;51.092;6.828;2023-08-01T13:35:06;19.50;99.90
20839;DHT22;10580;51.092;6.828;2023-08-01T13:37:32;19.30;1.00
20839;DHT22;10580;51.092;6.828;2023-08-01T13:39:58;19.30;1.00
20839;DHT22;10580;51.092;6.828;2023-08-01T13:42:23;18.90;1.00
20839;DHT22;10580;51.092;6.828;2023-08-01T13:44:49;19.10;1.00
20839;DHT22;10580;51.092;6.828;2023-08-01T13:47:17;19.50;1.00
20839;DHT22;10580;51.092;6.828;2023-08-01T13:49:43;20.20;99.90
20839;DHT22;10580;51.092;6.828;2023-08-01T13:52:08;20.40;99.90
20839;DHT22;10580;51.092;6.828;2023-08-01T13:54:34;20.30;99.90
20839;DHT22;10580;51.092;6.828;2023-08-01T13:57:00;20.20;99.90
20839;DHT22;10580;51.092;6.828;2023-08-01T13:59:25;20.00;1.00
20839;DHT22;10580;51.092;6.828;2023-08-01T14:01:52;20.00;1.00
20839;DHT22;10580;51.092;6.828;2023-08-01T14:04:18;20.40;99.90
20839;DHT22;10580;51.092;6.828;2023-08-01T14:06:43;20.80;99.90
20839;DHT22;10580;51.092;6.828;2023-08-01T14:09:09;21.00;99.90
20839;DHT22;10580;51.092;6.828;2023-08-01T14:11:38;21.20;99.90
20839;DHT22;10580;51.092;6.828;2023-08-01T14:14:04;21.60;1.00
20839;DHT22;10580;51.092;6.828;2023-08-01T14:16:30;21.90;1.00
20839;DHT22;10580;51.092;6.828;2023-08-01T14:18:59;21.90;99.90
20839;DHT22;10580;51.092;6.828;2023-08-01T14:21:24;21.80;1.00
20839;DHT22;10580;51.092;6.828;2023-08-01T14:23:50;21.30;1.00
20839;DHT22;10580;51.092;6.828;2023-08-01T14:26:16;21.20;1.00
20839;DHT22;10580;51.092;6.828;2023-08-01T14:28:41;21.50;1.00
20839;DHT22;10580;51.092;6.828;2023-08-01T14:31:07;21.70;99.90
20839;DHT22;10580;51.092;6.828;2023-08-01T14:33:33;21.60;1.00
20839;DHT22;10580;51.092;6.828;2023-08-01T14:35:59;21.70;99.90
20839;DHT22;10580;51.092;6.828;2023-08-01T14:38:25;21.40;99.90
20839;DHT22;10580;51.092;6.828;2023-08-01T14:40:52;21.30;99.90
20839;DHT22;10580;51.092;6.828;2023-08-01T14:43:18;21.20;99.90
20839;DHT22;10580;51.092;6.828;2023-08-01T14:45:44;21.10;1.00
20839;DHT22;10580;51.092;6.828;2023-08-01T14:48:12;21.20;92.10
20839;DHT22;10580;51.092;6.828;2023-08-01T14:50:41;21.30;1.00
20839;DHT22;10580;51.092;6.828;2023-08-01T14:53:06;21.20;99.90
20839;DHT22;10580;51.092;6.828;2023-08-01T14:55:33;21.10;99.90
20839;DHT22;10580;51.092;6.828;2023-08-01T14:57:59;21.00;99.90
20839;DHT22;10580;51.092;6.828;2023-08-01T15:00:24;21.50;99.90
20839;DHT22;10580;51.092;6.828;2023-08-01T15:02:50;21.60;44.00
20839;DHT22;10580;51.092;6.828;2023-08-01T15:05:19;22.10;1.00
20839;DHT22;10580;51.092;6.828;2023-08-01T15:07:44;22.20;1.00
20839;DHT22;10580;51.092;6.828;2023-08-01T15:10:10;22.00;1.00
20839;DHT22;10580;51.092;6.828;2023-08-01T15:12:36;21.70;1.00
20839;DHT22;10580;51.092;6.828;2023-08-01T15:15:03;21.40;1.00
20839;DHT22;10580;51.092;6.828;2023-08-01T15:17:29;21.20;1.00
20839;DHT22;10580;51.092;6.828;2023-08-01T15:19:54;21.20;1.00
20839;DHT22;10580;51.092;6.828;2023-08-01T15:22:22;21.10;99.90
20839;DHT22;10580;51.092;6.828;2023-08-01T15:24:48;21.00;99.90
20839;DHT22;10580;51.092;6.828;2023-08-01T15:27:20;20.90;1.00
20839;DHT22;10580;51.092;6.828;2023-08-01T15:29:46;20.80;99.90
20839;DHT22;10580;51.092;6.828;2023-08-01T15:33:05;20.70;99.90
20839;DHT22;10580;51.092;6.828;2023-08-01T15:45:30;19.90;1.00
20839;DHT22;10580;51.092;6.828;2023-08-01T15:47:56;19.90;1.00
20839;DHT22;10580;51.092;6.828;2023-08-01T15:50:28;20.00;1.00
20839;DHT22;10580;51.092;6.828;2023-08-01T15:57:06;20.10;1.00
20839;DHT22;10580;51.092;6.828;2023-08-01T15:59:31;20.00;1.00
20839;DHT22;10580;51.092;6.828;2023-08-01T16:02:09;20.00;1.00
20839;DHT22;10580;51.092;6.828;2023-08-01T16:04:35;20.00;1.00
20839;DHT22;10580;51.092;6.828;2023-08-01T16:07:00;19.90;1.00
20839;DHT22;10580;51.092;6.828;2023-08-01T16:09:26;19.90;1.00
20839;DHT22;10580;51.092;6.828;2023-08-01T16:11:52;20.00;1.00
20839;DHT22;10580;51.092;6.828;2023-08-01T16:14:17;20.00;1.00
20839;DHT22;10580;51.092;6.828;2023-08-01T16:16:43;20.00;1.00
20839;DHT22;10580;51.092;6.828;2023-08-01T16:19:08;20.10;1.00
20839;DHT22;10580;51.092;6.828;2023-08-01T16:21:34;20.10;1.00
20839;DHT22;10580;51.092;6.828;2023-08-01T16:24:00;20.30;99.90
20839;DHT22;10580;51.092;6.828;2023-08-01T16:26:28;20.70;1.00
20839;DHT22;10580;51.092;6.828;2023-08-01T16:28:54;20.90;99.90
20839;DHT22;10580;51.092;6.828;2023-08-01T16:31:19;21.00;99.90
20839;DHT22;10580;51.092;6.828;2023-08-01T16:33:45;21.20;99.90
20839;DHT22;10580;51.092;6.828;2023-08-01T16:36:10;21.00;99.90
20839;DHT22;10580;51.092;6.828;2023-08-01T16:38:36;21.10;99.90
20839;DHT22;10580;51.092;6.828;2023-08-01T16:41:07;21.00;99.90
20839;DHT22;10580;51.092;6.828;2023-08-01T16:43:33;20.80;99.90
20839;DHT22;10580;51.092;6.828;2023-08-01T16:45:58;20.70;99.90
20839;DHT22;10580;51.092;6.828;2023-08-01T16:48:28;20.50;99.90
20839;DHT22;10580;51.092;6.828;2023-08-01T16:50:53;20.40;99.90
20839;DHT22;10580;51.092;6.828;2023-08-01T16:53:19;20.40;99.90
20839;DHT22;10580;51.092;6.828;2023-08-01T16:55:46;20.40;99.90
20839;DHT22;10580;51.092;6.828;2023-08-01T16:58:12;20.30;99.90
20839;DHT22;10580;51.092;6.828;2023-08-01T17:00:39;20.20;99.90
20839;DHT22;10580;51.092;6.828;2023-08-01T17:03:04;20.30;99.90
20839;DHT22;10580;51.092;6.828;2023-08-01T17:05:30;20.50;99.90
20839;DHT22;10580;51.092;6.828;2023-08-01T17:07:56;20.50;99.90
20839;DHT22;10580;51.092;6.828;2023-08-01T17:10:22;20.50;99.90
20839;DHT22;10580;51.092;6.828;2023-08-01T17:12:49;20.30;99.90
20839;DHT22;10580;51.092;6.828;2023-08-01T17:15:15;20.20;99.90
20839;DHT22;10580;51.092;6.828;2023-08-01T17:17:40;20.10;99.90
20839;DHT22;10580;51.092;6.828;2023-08-01T17:20:07;20.00;99.90
20839;DHT22;10580;51.092;6.828;2023-08-01T17:22:42;19.90;99.90
20839;DHT22;10580;51.092;6.828;2023-08-01T17:31:53;19.50;99.90
20839;DHT22;10580;51.092;6.828;2023-08-01T17:34:19;19.40;99.90
20839;DHT22;10580;51.092;6.828;2023-08-01T17:37:11;19.30;99.90
20839;DHT22;10580;51.092;6.828;2023-08-01T17:39:36;19.20;99.90
20839;DHT22;10580;51.092;6.828;2023-08-01T17:42:02;19.20;99.90
20839;DHT22;10580;51.092;6.828;2023-08-01T17:44:41;19.20;99.90
20839;DHT22;10580;51.092;6.828;2023-08-01T17:47:06;19.10;99.90
20839;DHT22;10580;51.092;6.828;2023-08-01T17:49:32;19.10;99.90
20839;DHT22;10580;51.092;6.828;2023-08-01T17:52:35;19.10;99.90
20839;DHT22;10580;51.092;6.828;2023-08-01T17:55:00;19.00;99.90
20839;DHT22;10580;51.092;6.828;2023-08-01T17:57:26;19.00;99.90
20839;DHT22;10580;51.092;6.828;2023-08-01T17:59:58;18.90;99.90
20839;DHT22;10580;51.092;6.828;2023-08-01T18:02:38;18.90;99.90
20839;DHT22;10580;51.092;6.828;2023-08-01T18:05:25;18.80;99.90
20839;DHT22;10580;51.092;6.828;2023-08-01T18:14:01;18.80;99.90
20839;DHT22;10580;51.092;6.828;2023-08-01T18:16:29;18.70;99.90
20839;DHT22;10580;51.092;6.828;2023-08-01T18:18:55;18.70;99.90
20839;DHT22;10580;51.092;6.828;2023-08-01T18:21:20;18.60;99.90
20839;DHT22;10580;51.092;6.828;2023-08-01T18:23:48;18.50;99.90
20839;DHT22;10580;51.092;6.828;2023-08-01T18:26:31;18.50;99.90
20839;DHT22;10580;51.092;6.828;2023-08-01T18:29:34;18.50;99.90
20839;DHT22;10580;51.092;6.828;2023-08-01T18:32:00;18.50;99.90
20839;DHT22;10580;51.092;6.828;2023-08-01T18:34:37;18.50;99.90
20839;DHT22;10580;51.092;6.828;2023-08-01T18:37:18;18.40;99.90
20839;DHT22;10580;51.092;6.828;2023-08-01T18:40:13;18.40;99.90
20839;DHT22;10580;51.092;6.828;2023-08-01T18:42:44;18.40;99.90
20839;DHT22;10580;51.092;6.828;2023-08-01T18:45:10;18.40;99.90
20839;DHT22;10580;51.092;6.828;2023-08-01T18:54:14;18.30;99.90
20839;DHT22;10580;51.092;6.828;2023-08-01T18:56:51;18.20;99.90
20839;DHT22;10580;51.092;6.828;2023-08-01T18:59:40;18.20;99.90
20839;DHT22;10580;51.092;6.828;2023-08-01T19:02:05;18.20;99.90
20839;DHT22;10580;51.092;6.828;2023-08-01T19:07:49;18.20;99.90
20839;DHT22;10580;51.092;6.828;2023-08-01T19:10:15;18.10;99.90
20839;DHT22;10580;51.092;6.828;2023-08-01T19:12:42;18.20;99.90
20839;DHT22;10580;51.092;6.828;2023-08-01T19:15:08;18.10;1.00
20839;DHT22;10580;51.092;6.828;2023-08-01T19:17:34;18.10;99.90
20839;DHT22;10580;51.092;6.828;2023-08-01T19:20:00;18.10;1.00
20839;DHT22;10580;51.092;6.828;2023-08-01T19:22:26;18.00;1.00
20839;DHT22;10580;51.092;6.828;2023-08-01T19:24:52;18.00;1.00
20839;DHT22;10580;51.092;6.828;2023-08-01T19:27:18;18.00;1.00